createdAt,value
2018-12-29T00:00:33.563Z,2.90
2018-12-29T00:03:03.860Z,2.90
2018-12-29T00:05:34.088Z,2.90
2018-12-29T00:08:04.364Z,2.80
2018-12-29T00:10:34.511Z,2.90
2018-12-29T00:13:04.704Z,2.90
2018-12-29T00:15:34.990Z,2.90
2018-12-29T00:18:05.299Z,2.90
2018-12-29T00:20:35.490Z,2.90
2018-12-29T00:23:06.437Z,2.80
2018-12-29T00:25:36.608Z,2.80
2018-12-29T00:28:06.800Z,2.80
2018-12-29T00:30:37.020Z,2.80
2018-12-29T00:33:07.232Z,2.80
2018-12-29T00:35:38.927Z,2.80
2018-12-29T00:38:09.067Z,2.90
2018-12-29T00:40:39.301Z,2.90
2018-12-29T00:43:09.619Z,2.90
2018-12-29T00:45:39.785Z,2.90
2018-12-29T00:48:10.023Z,2.90
2018-12-29T00:50:40.655Z,2.90
2018-12-29T00:53:10.826Z,3.00
2018-12-29T00:55:40.994Z,3.00
2018-12-29T00:58:11.211Z,3.00
2018-12-29T01:00:41.349Z,3.10
2018-12-29T01:03:11.507Z,3.10
2018-12-29T01:05:41.707Z,3.10
2018-12-29T01:08:11.900Z,3.10
2018-12-29T01:10:42.091Z,3.10
2018-12-29T01:13:12.278Z,3.20
2018-12-29T01:15:42.443Z,3.20
2018-12-29T01:18:12.702Z,3.20
2018-12-29T01:20:42.926Z,3.20
2018-12-29T01:23:13.128Z,3.20
2018-12-29T01:25:43.349Z,3.20
2018-12-29T01:28:13.511Z,3.20
2018-12-29T01:30:43.675Z,3.20
2018-12-29T01:33:13.892Z,3.20
2018-12-29T01:35:45.242Z,3.20
2018-12-29T01:38:15.511Z,3.30
2018-12-29T01:40:45.792Z,3.30
2018-12-29T01:43:16.035Z,3.30
2018-12-29T01:45:46.222Z,3.30
2018-12-29T01:48:16.427Z,3.40
2018-12-29T01:50:46.687Z,3.30
2018-12-29T01:53:16.869Z,3.30
2018-12-29T01:55:47.058Z,3.30
2018-12-29T01:58:17.259Z,3.30
2018-12-29T02:00:47.482Z,3.40
2018-12-29T02:03:17.665Z,3.40
2018-12-29T02:05:47.849Z,3.40
2018-12-29T02:08:18.023Z,3.40
2018-12-29T02:10:48.215Z,3.40
2018-12-29T02:13:18.391Z,3.40
2018-12-29T02:15:48.611Z,3.40
2018-12-29T02:18:18.856Z,3.40
2018-12-29T02:20:49.122Z,3.40
2018-12-29T02:23:19.296Z,3.40
2018-12-29T02:25:49.523Z,3.40
2018-12-29T02:28:19.664Z,3.40
2018-12-29T02:30:49.868Z,3.50
2018-12-29T02:33:20.187Z,3.50
2018-12-29T02:35:50.471Z,3.50
2018-12-29T02:38:20.739Z,3.50
2018-12-29T02:40:50.893Z,3.50
2018-12-29T02:43:21.060Z,3.50
2018-12-29T02:45:51.247Z,3.50
2018-12-29T02:48:21.502Z,3.50
2018-12-29T02:50:51.669Z,3.50
2018-12-29T02:53:21.844Z,3.50
2018-12-29T02:55:52.008Z,3.50
2018-12-29T02:58:23.664Z,3.50
2018-12-29T03:00:53.859Z,3.50
2018-12-29T03:03:24.059Z,3.50
2018-12-29T03:05:54.227Z,3.50
2018-12-29T03:08:24.454Z,3.50
2018-12-29T03:10:54.787Z,3.50
2018-12-29T03:13:24.971Z,3.50
2018-12-29T03:15:55.144Z,3.50
2018-12-29T03:18:25.345Z,3.50
2018-12-29T03:20:55.523Z,3.50
2018-12-29T03:23:25.719Z,3.60
2018-12-29T03:25:55.910Z,3.60
2018-12-29T03:28:26.098Z,3.60
2018-12-29T03:30:56.330Z,3.60
2018-12-29T03:33:26.586Z,3.60
2018-12-29T03:35:56.788Z,3.60
2018-12-29T03:38:27.029Z,3.60
2018-12-29T03:40:57.279Z,3.50
2018-12-29T03:43:27.505Z,3.50
2018-12-29T03:45:57.724Z,3.50
2018-12-29T03:48:27.885Z,3.40
2018-12-29T03:50:58.085Z,3.40
2018-12-29T03:53:28.276Z,3.50
2018-12-29T03:55:59.424Z,3.50
2018-12-29T03:58:29.693Z,3.50
2018-12-29T04:00:59.880Z,3.50
2018-12-29T04:03:30.086Z,3.50
2018-12-29T04:06:00.281Z,3.50
2018-12-29T04:08:30.460Z,3.50
2018-12-29T04:11:00.698Z,3.40
2018-12-29T04:13:30.920Z,3.50
2018-12-29T04:16:01.139Z,3.50
2018-12-29T04:18:32.805Z,3.50
2018-12-29T04:21:02.990Z,3.50
2018-12-29T04:23:33.245Z,3.40
2018-12-29T04:26:03.417Z,3.40
2018-12-29T04:28:33.612Z,3.50
2018-12-29T04:31:03.832Z,3.50
2018-12-29T04:33:34.038Z,3.50
2018-12-29T04:36:05.349Z,3.50
2018-12-29T04:38:35.551Z,3.50
2018-12-29T04:41:05.876Z,3.50
2018-12-29T04:43:36.071Z,3.50
2018-12-29T04:46:06.297Z,3.60
2018-12-29T04:48:36.472Z,3.50
2018-12-29T04:51:06.655Z,3.60
2018-12-29T04:53:36.860Z,3.60
2018-12-29T04:56:07.072Z,3.60
2018-12-29T04:58:37.344Z,3.60
2018-12-29T05:01:07.504Z,3.60
2018-12-29T05:03:37.757Z,3.60
2018-12-29T05:06:08.017Z,3.60
2018-12-29T05:08:38.216Z,3.60
2018-12-29T05:11:09.844Z,3.60
2018-12-29T05:13:40.124Z,3.60
2018-12-29T05:16:13.037Z,3.60
2018-12-29T05:18:42.219Z,3.60
2018-12-29T05:21:12.412Z,3.60
2018-12-29T05:23:42.598Z,3.60
2018-12-29T05:26:12.775Z,3.60
2018-12-29T05:28:42.951Z,3.60
2018-12-29T05:31:13.164Z,3.60
2018-12-29T05:33:43.344Z,3.60
2018-12-29T05:36:13.676Z,3.60
2018-12-29T05:38:43.870Z,3.60
2018-12-29T05:41:14.045Z,3.70
2018-12-29T05:43:44.236Z,3.60
2018-12-29T05:46:20.369Z,3.70
2018-12-29T05:48:46.352Z,3.60
2018-12-29T05:51:16.623Z,3.70
2018-12-29T05:53:46.823Z,3.70
2018-12-29T05:56:17.873Z,3.70
2018-12-29T05:58:48.171Z,3.70
2018-12-29T06:01:18.356Z,3.70
2018-12-29T06:03:48.543Z,3.70
2018-12-29T06:06:18.823Z,3.70
2018-12-29T06:08:49.035Z,3.70
2018-12-29T06:11:19.281Z,3.70
2018-12-29T06:13:49.504Z,3.80
2018-12-29T06:16:19.680Z,3.80
2018-12-29T06:18:49.840Z,3.80
2018-12-29T06:21:21.504Z,3.80
2018-12-29T06:23:51.659Z,3.80
2018-12-29T06:26:21.854Z,3.80
2018-12-29T06:28:52.039Z,3.80
2018-12-29T06:31:22.191Z,3.90
2018-12-29T06:33:52.400Z,3.90
2018-12-29T06:36:22.636Z,3.90
2018-12-29T06:38:52.828Z,4.00
2018-12-29T06:41:23.008Z,3.90
2018-12-29T06:43:53.172Z,4.00
2018-12-29T06:46:23.324Z,4.00
2018-12-29T06:48:53.509Z,4.00
2018-12-29T06:51:23.720Z,4.00
2018-12-29T06:53:53.942Z,3.90
2018-12-29T06:56:24.148Z,3.90
2018-12-29T06:58:54.296Z,4.00
2018-12-29T07:01:24.564Z,4.00
2018-12-29T07:03:54.748Z,4.00
2018-12-29T07:06:24.912Z,4.00
2018-12-29T07:08:55.070Z,4.00
2018-12-29T07:11:25.240Z,4.00
2018-12-29T07:13:55.428Z,4.00
2018-12-29T07:16:25.595Z,4.00
2018-12-29T07:18:55.759Z,4.00
2018-12-29T07:21:25.982Z,3.90
2018-12-29T07:23:56.327Z,4.00
2018-12-29T07:26:26.584Z,4.00
2018-12-29T07:28:56.770Z,4.00
2018-12-29T07:31:26.971Z,4.00
2018-12-29T07:33:57.214Z,4.00
2018-12-29T07:36:27.441Z,4.00
2018-12-29T07:38:57.625Z,4.10
2018-12-29T07:41:27.786Z,4.10
2018-12-29T07:43:57.961Z,4.10
2018-12-29T07:46:28.219Z,4.10
2018-12-29T07:48:58.351Z,4.10
2018-12-29T07:51:28.603Z,4.20
2018-12-29T07:53:58.779Z,4.20
2018-12-29T07:56:28.960Z,4.20
2018-12-29T07:58:59.136Z,4.20
2018-12-29T08:01:29.312Z,4.20
2018-12-29T08:03:59.463Z,4.20
2018-12-29T08:06:29.639Z,4.20
2018-12-29T08:08:59.883Z,4.30
2018-12-29T08:11:30.070Z,4.30
2018-12-29T08:14:00.234Z,4.30
2018-12-29T08:16:30.407Z,4.30
2018-12-29T08:19:00.819Z,4.30
2018-12-29T08:21:31.079Z,4.40
2018-12-29T08:24:01.245Z,4.40
2018-12-29T08:26:31.421Z,4.40
2018-12-29T08:29:01.572Z,4.40
2018-12-29T08:31:31.769Z,4.40
2018-12-29T08:34:01.929Z,4.40
2018-12-29T08:36:32.464Z,4.40
2018-12-29T08:39:04.304Z,4.40
2018-12-29T08:41:34.516Z,4.40
2018-12-29T08:44:04.888Z,4.40
2018-12-29T08:46:35.048Z,4.50
2018-12-29T08:49:05.263Z,4.50
2018-12-29T08:51:35.663Z,4.50
2018-12-29T08:54:05.871Z,4.50
2018-12-29T08:56:37.212Z,4.50
2018-12-29T08:59:07.497Z,4.60
2018-12-29T09:01:37.750Z,4.60
2018-12-29T09:04:07.902Z,4.60
2018-12-29T09:06:38.079Z,4.70
2018-12-29T09:09:08.300Z,4.70
2018-12-29T09:11:38.463Z,4.70
2018-12-29T09:14:08.626Z,4.70
2018-12-29T09:16:38.783Z,4.70
2018-12-29T09:19:09.076Z,4.70
2018-12-29T09:21:39.316Z,4.70
2018-12-29T09:24:09.463Z,4.70
2018-12-29T09:26:39.660Z,4.80
2018-12-29T09:29:09.852Z,4.80
2018-12-29T09:31:41.795Z,4.80
2018-12-29T09:34:12.044Z,4.80
2018-12-29T09:36:42.328Z,4.90
2018-12-29T09:39:12.597Z,4.90
2018-12-29T09:41:42.756Z,4.90
2018-12-29T09:44:13.038Z,5.00
2018-12-29T09:46:43.208Z,5.00
2018-12-29T09:49:13.384Z,5.10
2018-12-29T09:51:43.591Z,5.10
2018-12-29T09:54:13.824Z,5.10
2018-12-29T09:56:44.112Z,5.10
2018-12-29T09:59:14.300Z,5.20
2018-12-29T10:01:44.673Z,5.20
2018-12-29T10:04:14.847Z,5.20
2018-12-29T10:06:45.008Z,5.30
2018-12-29T10:09:15.170Z,5.30
2018-12-29T10:11:45.352Z,5.40
2018-12-29T10:14:15.548Z,5.40
2018-12-29T10:16:45.711Z,5.40
2018-12-29T10:19:15.872Z,5.50
2018-12-29T10:21:46.500Z,5.50
2018-12-29T10:24:16.711Z,5.50
2018-12-29T10:26:46.876Z,5.60
2018-12-29T10:29:20.047Z,5.60
2018-12-29T10:31:50.187Z,5.60
2018-12-29T10:34:20.358Z,5.70
2018-12-29T10:36:50.560Z,5.80
2018-12-29T10:39:20.700Z,5.80
2018-12-29T10:41:50.895Z,5.80
2018-12-29T10:44:21.096Z,5.90
2018-12-29T10:46:51.248Z,5.90
2018-12-29T10:49:21.402Z,5.90
2018-12-29T10:51:51.593Z,5.90
2018-12-29T10:54:21.784Z,5.90
2018-12-29T10:56:51.933Z,6.00
2018-12-29T10:59:22.111Z,6.00
2018-12-29T11:01:52.393Z,6.00
2018-12-29T11:04:22.725Z,6.00
2018-12-29T11:06:52.927Z,6.00
2018-12-29T11:09:24.173Z,6.10
2018-12-29T11:11:57.048Z,6.20
2018-12-29T11:14:27.242Z,6.30
2018-12-29T11:16:57.438Z,6.30
2018-12-29T11:19:27.592Z,6.40
2018-12-29T11:21:57.755Z,6.50
2018-12-29T11:24:28.014Z,6.50
2018-12-29T11:26:58.204Z,6.40
2018-12-29T11:29:28.392Z,6.40
2018-12-29T11:31:58.548Z,6.40
2018-12-29T11:34:28.703Z,6.30
2018-12-29T11:36:59.019Z,6.30
2018-12-29T11:39:29.204Z,6.30
2018-12-29T11:41:59.352Z,6.30
2018-12-29T11:44:29.514Z,6.30
2018-12-29T11:46:59.683Z,6.30
2018-12-29T11:49:29.959Z,6.40
2018-12-29T11:52:00.131Z,6.50
2018-12-29T11:54:30.368Z,6.70
2018-12-29T11:57:00.603Z,6.80
2018-12-29T11:59:30.796Z,6.90
2018-12-29T12:02:00.944Z,7.00
2018-12-29T12:04:31.141Z,7.00
2018-12-29T12:07:01.710Z,7.00
2018-12-29T12:09:32.007Z,7.00
2018-12-29T12:12:02.205Z,7.00
2018-12-29T12:14:33.876Z,6.80
2018-12-29T12:17:04.031Z,6.80
2018-12-29T12:19:34.247Z,6.80
2018-12-29T12:22:04.428Z,6.80
2018-12-29T12:24:34.614Z,6.80
2018-12-29T12:27:04.851Z,6.80
2018-12-29T12:29:36.223Z,6.80
2018-12-29T12:32:06.412Z,6.80
2018-12-29T12:34:36.579Z,6.80
2018-12-29T12:37:06.796Z,6.80
2018-12-29T12:39:37.085Z,6.90
2018-12-29T12:42:07.451Z,6.90
2018-12-29T12:44:37.689Z,6.90
2018-12-29T12:47:08.229Z,6.80
2018-12-29T12:49:38.493Z,6.80
2018-12-29T12:52:08.679Z,6.90
2018-12-29T12:54:40.011Z,6.80
2018-12-29T12:57:10.745Z,6.80
2018-12-29T12:59:41.217Z,6.80
2018-12-29T13:02:12.369Z,6.80
2018-12-29T13:04:42.922Z,6.80
2018-12-29T13:07:13.104Z,6.80
2018-12-29T13:09:43.279Z,6.80
2018-12-29T13:12:13.499Z,6.80
2018-12-29T13:14:43.692Z,6.80
2018-12-29T13:17:14.983Z,6.90
2018-12-29T13:19:45.205Z,6.90
2018-12-29T13:22:15.365Z,6.90
2018-12-29T13:24:45.554Z,6.90
2018-12-29T13:27:16.021Z,6.90
2018-12-29T13:29:46.265Z,6.80
2018-12-29T13:32:16.526Z,6.80
2018-12-29T13:34:46.795Z,6.80
2018-12-29T13:37:16.964Z,6.70
2018-12-29T13:39:47.144Z,6.80
2018-12-29T13:42:17.345Z,6.70
2018-12-29T13:44:47.616Z,6.70
2018-12-29T13:47:17.795Z,6.60
2018-12-29T13:49:48.023Z,6.60
2018-12-29T13:52:18.218Z,6.60
2018-12-29T13:54:49.876Z,6.60
2018-12-29T13:57:20.090Z,6.50
2018-12-29T13:59:50.655Z,6.60
2018-12-29T14:02:20.816Z,6.60
2018-12-29T14:04:51.140Z,6.50
2018-12-29T14:07:21.329Z,6.50
2018-12-29T14:09:51.564Z,6.50
2018-12-29T14:12:21.742Z,6.50
2018-12-29T14:14:51.979Z,6.50
2018-12-29T14:17:22.180Z,6.50
2018-12-29T14:19:52.430Z,6.50
2018-12-29T14:22:22.655Z,6.50
2018-12-29T14:24:52.887Z,6.50
2018-12-29T14:27:23.040Z,6.50
2018-12-29T14:29:53.206Z,6.50
2018-12-29T14:32:23.624Z,6.50
2018-12-29T14:34:53.855Z,6.50
2018-12-29T14:37:24.140Z,6.40
2018-12-29T14:39:54.395Z,6.40
2018-12-29T14:42:24.627Z,6.40
2018-12-29T14:44:54.908Z,6.40
2018-12-29T14:47:25.066Z,6.50
2018-12-29T14:49:55.647Z,6.50
2018-12-29T14:52:25.823Z,6.50
2018-12-29T14:54:56.360Z,6.50
2018-12-29T14:57:26.648Z,6.50
2018-12-29T14:59:56.867Z,6.60
2018-12-29T15:02:27.056Z,6.60
2018-12-29T15:04:57.301Z,6.50
2018-12-29T15:07:27.463Z,6.50
2018-12-29T15:09:57.639Z,6.60
2018-12-29T15:12:27.937Z,6.60
2018-12-29T15:14:58.710Z,6.50
2018-12-29T15:17:29.193Z,6.40
2018-12-29T15:19:59.521Z,6.40
2018-12-29T15:22:29.906Z,6.30
2018-12-29T15:25:00.078Z,6.30
2018-12-29T15:27:30.663Z,6.20
2018-12-29T15:30:00.998Z,6.20
2018-12-29T15:32:31.271Z,6.10
2018-12-29T15:35:01.889Z,6.10
2018-12-29T15:37:32.235Z,6.10
2018-12-29T15:40:02.543Z,6.00
2018-12-29T15:42:32.795Z,6.00
2018-12-29T15:45:03.080Z,6.00
2018-12-29T15:47:33.348Z,6.00
2018-12-29T15:50:03.516Z,6.10
2018-12-29T15:52:33.793Z,6.10
2018-12-29T15:55:04.271Z,6.10
2018-12-29T15:57:34.527Z,6.10
2018-12-29T16:00:05.463Z,6.10
2018-12-29T16:02:35.684Z,6.10
2018-12-29T16:05:06.748Z,6.10
2018-12-29T16:07:37.293Z,6.10
2018-12-29T16:10:07.679Z,6.10
2018-12-29T16:12:37.860Z,6.10
2018-12-29T16:15:08.513Z,6.00
2018-12-29T16:17:38.779Z,6.00
2018-12-29T16:20:08.972Z,6.00
2018-12-29T16:22:39.245Z,6.00
2018-12-29T16:25:09.468Z,6.00
2018-12-29T16:27:40.872Z,6.00
2018-12-29T16:30:11.181Z,6.00
2018-12-29T16:32:41.394Z,6.00
2018-12-29T16:35:11.703Z,6.00
2018-12-29T16:37:41.949Z,6.00
2018-12-29T16:40:12.230Z,6.00
2018-12-29T16:42:42.488Z,6.00
2018-12-29T16:45:12.723Z,6.00
2018-12-29T16:47:43.020Z,6.00
2018-12-29T16:50:13.347Z,6.00
2018-12-29T16:52:46.776Z,6.00
2018-12-29T16:55:17.420Z,6.00
2018-12-29T16:57:47.659Z,6.10
2018-12-29T17:00:17.907Z,6.10
2018-12-29T17:02:49.308Z,6.10
2018-12-29T17:05:19.572Z,6.10
2018-12-29T17:07:49.764Z,6.10
2018-12-29T17:10:20.026Z,6.20
2018-12-29T17:12:50.288Z,6.20
2018-12-29T17:15:20.500Z,6.20
2018-12-29T17:17:50.755Z,6.20
2018-12-29T17:20:21.084Z,6.20
2018-12-29T17:22:51.409Z,6.30
2018-12-29T17:25:23.310Z,6.30
2018-12-29T17:27:53.632Z,6.30
2018-12-29T17:30:23.899Z,6.30
2018-12-29T17:32:54.160Z,6.30
2018-12-29T17:35:24.665Z,6.40
2018-12-29T17:37:54.988Z,6.40
2018-12-29T17:40:25.344Z,6.40
2018-12-29T17:42:55.679Z,6.40
2018-12-29T17:45:25.943Z,6.40
2018-12-29T17:47:56.524Z,6.50
2018-12-29T17:50:27.162Z,6.50
2018-12-29T17:52:57.362Z,6.50
2018-12-29T17:55:27.578Z,6.50
2018-12-29T17:57:57.812Z,6.60
2018-12-29T18:00:30.241Z,6.60
2018-12-29T18:03:00.770Z,6.60
2018-12-29T18:05:31.010Z,6.70
2018-12-29T18:08:01.373Z,6.70
2018-12-29T18:10:33.349Z,6.70
2018-12-29T18:13:03.820Z,6.70
2018-12-29T18:15:34.086Z,6.70
2018-12-29T18:18:04.353Z,6.80
2018-12-29T18:20:34.904Z,6.80
2018-12-29T18:23:05.152Z,6.80
2018-12-29T18:25:35.383Z,6.80
2018-12-29T18:28:05.624Z,6.80
2018-12-29T18:30:36.283Z,6.80
2018-12-29T18:33:06.475Z,6.80
2018-12-29T18:35:36.756Z,6.80
2018-12-29T18:38:07.032Z,6.90
2018-12-29T18:40:37.353Z,6.90
2018-12-29T18:43:07.613Z,6.90
2018-12-29T18:45:37.843Z,6.90
2018-12-29T18:48:08.328Z,7.00
2018-12-29T18:50:38.499Z,7.00
2018-12-29T18:53:08.903Z,7.00
2018-12-29T18:55:39.044Z,7.10
2018-12-29T18:58:09.346Z,7.10
2018-12-29T19:00:39.683Z,7.10
2018-12-29T19:03:09.851Z,7.10
2018-12-29T19:05:40.120Z,7.20
2018-12-29T19:08:10.412Z,7.20
2018-12-29T19:10:40.819Z,7.20
2018-12-29T19:13:11.414Z,7.20
2018-12-29T19:15:41.823Z,7.30
2018-12-29T19:18:12.045Z,7.30
2018-12-29T19:20:42.652Z,7.40
2018-12-29T19:23:13.553Z,7.40
2018-12-29T19:25:44.151Z,7.50
2018-12-29T19:28:14.631Z,7.50
2018-12-29T19:30:45.119Z,7.60
2018-12-29T19:33:15.684Z,7.60
2018-12-29T19:35:46.327Z,7.60
2018-12-29T19:38:17.006Z,7.70
2018-12-29T19:40:47.664Z,7.70
2018-12-29T19:43:18.152Z,7.80
2018-12-29T19:45:48.420Z,7.80
2018-12-29T19:48:18.656Z,7.80
2018-12-29T19:50:48.949Z,7.90
2018-12-29T19:53:19.400Z,7.90
2018-12-29T19:55:50.719Z,7.90
2018-12-29T19:58:20.932Z,8.00
2018-12-29T20:00:51.250Z,8.00
2018-12-29T20:03:21.540Z,8.10
2018-12-29T20:05:52.142Z,8.20
2018-12-29T20:08:22.393Z,8.10
2018-12-29T20:10:52.844Z,8.20
2018-12-29T20:13:23.028Z,8.20
2018-12-29T20:15:53.215Z,8.20
2018-12-29T20:18:23.482Z,8.30
2018-12-29T20:20:53.785Z,8.30
2018-12-29T20:23:24.462Z,8.30
2018-12-29T20:25:54.890Z,8.40
2018-12-29T20:28:25.285Z,8.40
2018-12-29T20:30:55.501Z,8.50
2018-12-29T20:33:26.153Z,8.50
2018-12-29T20:35:56.379Z,8.40
2018-12-29T20:38:26.754Z,8.40
2018-12-29T20:40:56.942Z,8.40
2018-12-29T20:43:27.299Z,8.40
2018-12-29T20:45:57.491Z,8.40
2018-12-29T20:48:27.657Z,8.50
2018-12-29T20:50:57.856Z,8.50
2018-12-29T20:53:28.125Z,8.50
2018-12-29T20:55:59.435Z,8.50
2018-12-29T20:58:29.629Z,8.50
2018-12-29T21:00:59.797Z,8.50
2018-12-29T21:03:30.076Z,8.50
2018-12-29T21:06:00.348Z,8.50
2018-12-29T21:08:30.663Z,8.50
2018-12-29T21:11:00.889Z,8.50
2018-12-29T21:13:31.171Z,8.50
2018-12-29T21:16:01.436Z,8.50
2018-12-29T21:18:31.663Z,8.50
2018-12-29T21:21:01.928Z,8.50
2018-12-29T21:23:32.187Z,8.50
2018-12-29T21:26:04.534Z,8.40
2018-12-29T21:28:34.702Z,8.40
2018-12-29T21:31:04.951Z,8.40
2018-12-29T21:33:35.405Z,8.40
2018-12-29T21:36:05.611Z,8.30
2018-12-29T21:38:35.863Z,8.40
2018-12-29T21:41:06.087Z,8.40
2018-12-29T21:43:37.334Z,8.40
2018-12-29T21:46:07.876Z,8.30
2018-12-29T21:48:38.146Z,8.20
2018-12-29T21:51:08.385Z,8.10
2018-12-29T21:53:38.592Z,8.00
2018-12-29T21:56:11.469Z,8.00
2018-12-29T21:58:41.732Z,8.10
2018-12-29T22:01:11.894Z,8.10
2018-12-29T22:03:42.224Z,8.20
2018-12-29T22:06:12.482Z,8.20
2018-12-29T22:08:42.659Z,8.30
2018-12-29T22:11:12.868Z,8.30
2018-12-29T22:13:43.047Z,8.40
2018-12-29T22:16:13.223Z,8.40
2018-12-29T22:18:43.436Z,8.30
2018-12-29T22:21:13.618Z,8.40
2018-12-29T22:23:44.043Z,8.30
2018-12-29T22:26:14.311Z,8.30
2018-12-29T22:28:44.588Z,8.30
2018-12-29T22:31:15.851Z,8.30
2018-12-29T22:33:45.999Z,8.30
2018-12-29T22:36:16.160Z,8.20
2018-12-29T22:38:46.462Z,8.20
2018-12-29T22:41:16.779Z,8.20
2018-12-29T22:43:47.063Z,8.20
2018-12-29T22:46:17.423Z,8.20
2018-12-29T22:48:47.636Z,8.20
2018-12-29T22:51:17.908Z,8.20
2018-12-29T22:53:48.263Z,8.20
2018-12-29T22:56:18.522Z,8.20
2018-12-29T22:58:49.235Z,8.10
2018-12-29T23:01:19.546Z,8.10
2018-12-29T23:03:51.080Z,8.10
2018-12-29T23:06:21.317Z,8.10
2018-12-29T23:08:51.604Z,8.10
2018-12-29T23:11:21.955Z,8.10
2018-12-29T23:13:52.324Z,8.10
2018-12-29T23:16:22.576Z,8.00
2018-12-29T23:18:53.018Z,8.00
2018-12-29T23:21:23.267Z,8.00
2018-12-29T23:23:53.532Z,8.00
2018-12-29T23:26:23.791Z,8.00
2018-12-29T23:28:53.992Z,8.00
2018-12-29T23:31:24.552Z,8.00
2018-12-29T23:33:54.852Z,8.00
2018-12-29T23:36:25.327Z,8.00
2018-12-29T23:38:55.675Z,8.00
2018-12-29T23:41:25.948Z,8.00
2018-12-29T23:43:56.340Z,8.00
2018-12-29T23:46:26.578Z,8.00
2018-12-29T23:48:56.951Z,8.00
2018-12-29T23:51:27.160Z,8.00
2018-12-29T23:53:57.344Z,8.00
2018-12-29T23:56:27.922Z,8.00
2018-12-29T23:58:58.160Z,8.00
